Main page
METAR-TAF:

METAR-TAF

Airports :

RAF Leeming

Leeming, England

latitude: 54-18N, longitude: 001-32W, elevation: 40 m

Current weather observation

The report was made 20 minutes ago, at 21:50 UTC
Wind 2 kt from the West
Temperature -2°C
Humidity 93%
Pressure 1023 hPa
Visibility 10 km or more

METAR: EGXE 112150Z AUTO 27002KT 9999 FEW150/// M02/M03 Q1023

Time: 23:10 (22:10 UTC)


TAF: missing

Weather observations and forecasts of more than 4000 airports (METAR and TAF reports).

The available stations are represented by yellow and red dots on the map.

Hover mouse over dot to see the name of the station.

Then click to see weather observations and forecasts.

To change the map : click on the green buttons with a black cross to zoom in, on the green button with a dash to zoom out, or on the green arrows for adjacent maps.


METAR-TAF: